Terminal Aerodrome Forecast
Issued by NWS Cleveland, OH

Home | Current Version | Previous Version | Graphics & Text | Print | Product List | Glossary On
Versions: 1 2 3 4 5 6 7 8 9 10 11 12 13 14
089
FTUS41 KCLE 230532
TAFTOL
TAF
KTOL 230532Z 2306/2406 11002KT P6SM SKC
      TEMPO 2307/2309 4SM BR
     FM230900 00000KT 4SM BR FEW250
      TEMPO 2310/2313 2SM BR
     FM231400 08005KT P6SM FEW250=

USA.gov is the U.S. government's official web portal to all federal, state and local government web resources and services.